Time;durP1;ratioP1;P1;durP2;ratioP2;P2;SDS_P1;SDS_P2;PMS_P1;PMS_P2;Temp;Humidity;BMP_temperature;BMP_pressure;BME280_temperature;BME280_humidity;BME280_pressure;Samples;Min_cycle;Max_cycle;Signal;HPM_P1;HPM_P2
2022/07/19 00:00:08;;;;;;;6.75;2.30;;;;;;;21.45;82.46;100803.44;5050354;28;20652;-76
2022/07/19 00:02:35;;;;;;;2.55;2.13;;;;;;;20.93;87.00;100777.06;5032231;28;20199;-75
2022/07/19 00:05:03;;;;;;;6.35;2.30;;;;;;;21.03;87.60;100786.56;5050991;28;20195;-76
2022/07/19 00:07:29;;;;;;;4.43;2.08;;;;;;;21.08;88.38;100795.25;5050997;28;20195;-74
2022/07/19 00:09:58;;;;;;;5.32;2.65;;;;;;;20.82;87.19;100744.72;5054350;28;20226;-74
2022/07/19 00:12:24;;;;;;;3.03;2.17;;;;;;;21.01;87.96;100793.59;5054132;28;20206;-75
2022/07/19 00:14:51;;;;;;;4.60;2.60;;;;;;;20.88;92.50;100792.06;5054860;28;20572;-75
2022/07/19 00:17:27;;;;;;;6.30;2.50;;;;;;;20.92;94.00;100792.88;5054048;28;20195;-75
2022/07/19 00:19:54;;;;;;;3.17;2.88;;;;;;;20.84;95.16;100785.09;5054602;28;20199;-75
2022/07/19 00:22:21;;;;;;;2.58;2.38;;;;;;;20.57;94.41;100749.50;5053806;28;20214;-76
2022/07/19 00:24:48;;;;;;;6.38;2.40;;;;;;;20.82;92.94;100786.91;5035334;28;20203;-76
2022/07/19 00:27:16;;;;;;;6.55;2.47;;;;;;;20.81;93.32;100784.28;5054639;28;20191;-74
2022/07/19 00:29:43;;;;;;;5.88;2.10;;;;;;;20.77;91.09;100779.06;5053736;28;20238;-75
2022/07/19 00:32:10;;;;;;;4.90;2.20;;;;;;;20.71;88.22;100760.72;5054342;28;20199;-75
2022/07/19 00:34:36;;;;;;;3.15;2.20;;;;;;;20.54;91.29;100778.53;5054125;28;20230;-76
2022/07/19 00:37:03;;;;;;;2.70;2.15;;;;;;;20.25;95.80;100788.56;5018892;28;20675;-76
2022/07/19 00:39:30;;;;;;;2.92;2.38;;;;;;;20.22;95.62;100760.53;5054006;28;20574;-76
2022/07/19 00:41:57;;;;;;;5.53;2.60;;;;;;;20.32;98.52;100787.63;5054226;28;20206;-75
2022/07/19 00:44:25;;;;;;;8.70;3.38;;;;;;;20.40;98.09;100793.69;5035251;28;20200;-75
2022/07/19 00:46:52;;;;;;;3.17;2.53;;;;;;;20.30;98.19;100780.66;5054290;28;20213;-76
2022/07/19 00:49:19;;;;;;;4.35;2.70;;;;;;;20.35;97.37;100786.69;5053592;28;20223;-76
2022/07/19 00:51:48;;;;;;;3.85;2.85;;;;;;;20.28;98.09;100792.06;5053177;28;20208;-75
2022/07/19 00:54:15;;;;;;;4.00;2.85;;;;;;;20.20;96.46;100783.34;5053785;28;20242;-76
2022/07/19 00:56:43;;;;;;;10.57;2.90;;;;;;;20.13;96.43;100779.06;5053318;28;20223;-75
2022/07/19 00:59:12;;;;;;;6.07;2.40;;;;;;;20.30;96.14;100784.13;5034775;28;20206;-77
2022/07/19 01:01:41;;;;;;;4.85;2.67;;;;;;;20.34;94.23;100785.81;5053015;28;20882;-76
2022/07/19 01:04:08;;;;;;;4.25;2.58;;;;;;;20.24;95.18;100785.06;5053413;28;20199;-76
2022/07/19 01:06:35;;;;;;;4.50;2.60;;;;;;;20.25;94.14;100784.19;5053434;28;20624;-76
2022/07/19 01:09:02;;;;;;;3.58;3.10;;;;;;;20.18;94.59;100782.50;5049595;28;20219;-76
2022/07/19 01:11:29;;;;;;;5.00;2.47;;;;;;;20.02;95.75;100775.69;5042472;28;20205;-75
2022/07/19 01:13:56;;;;;;;6.70;2.60;;;;;;;19.99;96.28;100775.72;5052955;28;20195;-76
2022/07/19 01:16:23;;;;;;;4.65;2.67;;;;;;;20.01;96.30;100766.03;5052577;28;20202;-75
2022/07/19 01:18:51;;;;;;;6.18;3.03;;;;;;;20.12;95.81;100774.66;5038546;28;20200;-76
2022/07/19 01:21:21;;;;;;;5.75;2.83;;;;;;;19.80;98.12;100726.81;5048632;28;20195;-75
2022/07/19 01:23:48;;;;;;;4.85;2.45;;;;;;;19.96;98.94;100778.41;5052453;28;20199;-74
2022/07/19 01:26:16;;;;;;;6.35;2.40;;;;;;;19.43;100.00;100701.84;5053208;28;20204;-75
2022/07/19 01:28:43;;;;;;;4.63;2.80;;;;;;;19.81;100.00;100786.47;5052873;28;20253;-75
2022/07/19 01:31:10;;;;;;;3.88;2.60;;;;;;;19.57;100.00;100755.16;5052829;28;20231;-75
2022/07/19 01:33:41;;;;;;;3.97;2.80;;;;;;;19.78;100.00;100781.25;5052931;28;20207;-75
2022/07/19 01:36:08;;;;;;;5.47;3.05;;;;;;;19.66;100.00;100771.72;5052705;28;20204;-74
2022/07/19 01:38:37;;;;;;;4.65;3.08;;;;;;;19.57;100.00;100776.22;5052786;28;20688;-75
2022/07/19 01:41:04;;;;;;;4.03;3.20;;;;;;;19.64;100.00;100762.09;5053016;28;20204;-75
2022/07/19 01:43:31;;;;;;;7.68;3.10;;;;;;;19.80;100.00;100776.81;5052533;28;20204;-75
2022/07/19 01:45:58;;;;;;;8.85;3.33;;;;;;;19.39;100.00;100708.00;5052786;28;20211;-76
2022/07/19 01:48:25;;;;;;;10.95;3.63;;;;;;;19.86;100.00;100778.53;5017308;28;20191;-76
2022/07/19 01:50:52;;;;;;;6.18;3.80;;;;;;;19.77;100.00;100782.13;5016761;28;20215;-75
2022/07/19 01:53:19;;;;;;;5.65;4.00;;;;;;;19.68;100.00;100790.13;5052183;28;20198;-75
2022/07/19 01:55:47;;;;;;;9.43;4.22;;;;;;;19.66;100.00;100782.25;5052665;28;20191;-76
2022/07/19 01:58:14;;;;;;;4.60;3.85;;;;;;;19.57;100.00;100781.47;5052209;28;20199;-75
2022/07/19 02:00:41;;;;;;;8.10;3.80;;;;;;;19.56;100.00;100783.25;5051978;28;20671;-75
2022/07/19 02:03:08;;;;;;;4.47;3.67;;;;;;;19.61;100.00;100799.84;5033961;28;20211;-76
2022/07/19 02:05:35;;;;;;;8.95;3.70;;;;;;;19.51;100.00;100782.41;5052335;28;20660;-75
2022/07/19 02:08:03;;;;;;;8.07;3.95;;;;;;;19.48;100.00;100792.06;5051982;28;20206;-75
2022/07/19 02:10:30;;;;;;;4.00;3.65;;;;;;;19.47;100.00;100791.22;5051805;28;20215;-75
2022/07/19 02:12:58;;;;;;;9.25;4.15;;;;;;;19.44;100.00;100785.13;5051598;28;20192;-75
2022/07/19 02:15:25;;;;;;;8.05;3.80;;;;;;;19.28;100.00;100779.09;5052285;28;20681;-75
2022/07/19 02:17:51;;;;;;;8.60;3.78;;;;;;;19.33;100.00;100783.41;5052481;28;20203;-74
2022/07/19 02:20:18;;;;;;;7.20;3.80;;;;;;;19.38;100.00;100779.88;5051790;28;20214;-76
2022/07/19 02:22:46;;;;;;;4.50;3.78;;;;;;;19.49;100.00;100785.94;5051896;28;20200;-75
2022/07/19 02:25:14;;;;;;;8.25;3.83;;;;;;;19.49;100.00;100788.56;5051973;28;20184;-75
2022/07/19 02:27:41;;;;;;;9.15;3.95;;;;;;;19.50;100.00;100790.31;5051713;28;20219;-76
2022/07/19 02:30:12;;;;;;;5.03;3.80;;;;;;;19.52;100.00;100775.38;5050593;28;20683;-75
2022/07/19 02:32:39;;;;;;;7.47;4.07;;;;;;;19.48;100.00;100792.97;5052149;28;20207;-76
2022/07/19 02:35:07;;;;;;;5.78;3.78;;;;;;;19.54;100.00;100787.66;5052304;28;20195;-75
2022/07/19 02:37:34;;;;;;;11.57;4.32;;;;;;;19.52;100.00;100791.16;5051768;28;20191;-75
2022/07/19 02:40:01;;;;;;;6.28;4.10;;;;;;;19.48;100.00;100789.44;5051777;28;20206;-74
2022/07/19 02:42:28;;;;;;;9.27;3.53;;;;;;;19.49;100.00;100780.69;5051857;28;20562;-76
2022/07/19 02:44:55;;;;;;;4.18;3.33;;;;;;;19.53;100.00;100796.44;5052237;28;20199;-75
2022/07/19 02:47:23;;;;;;;11.02;3.50;;;;;;;19.55;100.00;100799.91;5016537;28;20204;-75
2022/07/19 02:49:50;;;;;;;11.40;3.45;;;;;;;19.47;100.00;100795.63;5047745;28;20225;-76
2022/07/19 02:52:17;;;;;;;9.10;3.55;;;;;;;19.55;100.00;100805.16;5050877;28;20203;-76
2022/07/19 02:54:43;;;;;;;5.00;2.92;;;;;;;19.50;100.00;100792.94;5051366;28;20234;-76
2022/07/19 02:57:10;;;;;;;5.57;3.40;;;;;;;19.52;100.00;100785.91;5051589;28;20581;-75
2022/07/19 02:59:37;;;;;;;6.03;3.65;;;;;;;19.56;100.00;100814.81;5016291;28;20196;-75
2022/07/19 03:02:04;;;;;;;5.80;3.30;;;;;;;19.72;100.00;100805.00;5050478;28;20202;-76
2022/07/19 03:04:32;;;;;;;5.65;2.90;;;;;;;19.57;100.00;100781.47;5051304;28;20206;-76
2022/07/19 03:06:59;;;;;;;5.80;2.72;;;;;;;19.64;100.00;100814.72;5051491;28;20208;-76
2022/07/19 03:09:26;;;;;;;5.72;3.40;;;;;;;19.70;100.00;100812.03;5051200;28;20215;-75
2022/07/19 03:11:53;;;;;;;7.72;2.90;;;;;;;19.80;100.00;100805.78;5051557;28;20738;-76
2022/07/19 03:14:19;;;;;;;3.92;2.78;;;;;;;19.94;98.71;100822.28;5014947;28;20199;-75
2022/07/19 03:16:46;;;;;;;4.97;3.10;;;;;;;19.94;98.77;100819.66;5051103;28;20649;-75
2022/07/19 03:19:14;;;;;;;5.18;2.80;;;;;;;20.05;98.68;100827.41;5050954;28;20199;-75
2022/07/19 03:21:42;;;;;;;5.68;3.22;;;;;;;20.07;99.43;100831.81;5051179;28;20206;-75
2022/07/19 03:24:09;;;;;;;5.40;3.00;;;;;;;20.17;100.00;100836.06;5051020;28;20199;-75
2022/07/19 03:26:36;;;;;;;5.68;3.00;;;;;;;20.22;100.00;100813.19;5050811;28;20209;-76
2022/07/19 03:29:03;;;;;;;6.60;3.40;;;;;;;20.43;100.00;100829.63;5050634;28;20584;-75
2022/07/19 03:31:30;;;;;;;5.20;3.20;;;;;;;20.67;100.00;100832.81;5050823;28;20695;-76
2022/07/19 03:33:56;;;;;;;4.45;3.35;;;;;;;20.91;100.00;100839.47;5051311;28;20212;-75
2022/07/19 03:36:23;;;;;;;8.00;3.78;;;;;;;21.11;100.00;100832.19;5051079;28;20203;-75
2022/07/19 03:38:51;;;;;;;6.25;3.53;;;;;;;21.51;100.00;100844.69;5050795;28;20203;-76
2022/07/19 03:41:18;;;;;;;5.18;3.53;;;;;;;21.59;99.54;100819.00;5032071;28;20207;-75
2022/07/19 03:43:45;;;;;;;8.10;3.45;;;;;;;22.03;96.61;100824.38;5051063;28;20200;-75
2022/07/19 03:46:12;;;;;;;10.07;3.17;;;;;;;22.52;93.95;100841.84;5063170;28;20195;-75
2022/07/19 03:48:39;;;;;;;5.38;3.03;;;;;;;23.05;89.17;100843.28;5051066;28;20598;-74
2022/07/19 03:51:06;;;;;;;9.25;3.00;;;;;;;23.61;86.76;100847.22;5050286;28;20238;-75
2022/07/19 03:53:35;;;;;;;9.07;3.50;;;;;;;24.02;82.32;100836.34;5050330;28;20196;-75
2022/07/19 03:56:04;;;;;;;4.80;2.97;;;;;;;24.99;77.08;100854.72;5050390;28;20672;-75
2022/07/19 03:58:31;;;;;;;5.93;2.90;;;;;;;25.61;71.95;100849.13;5050426;28;20203;-75
2022/07/19 04:00:58;;;;;;;9.52;3.65;;;;;;;26.47;65.73;100853.13;5050789;28;20707;-73
2022/07/19 04:03:25;;;;;;;16.80;4.28;;;;;;;26.94;62.32;100844.16;5049334;28;20680;-77
2022/07/19 04:05:51;;;;;;;8.57;3.60;;;;;;;27.40;60.38;100852.91;5015246;28;20199;-77
2022/07/19 04:08:19;;;;;;;7.38;3.38;;;;;;;27.25;58.10;100794.97;5049480;28;20336;-77
2022/07/19 04:10:45;;;;;;;9.35;3.80;;;;;;;28.22;55.98;100870.72;5049991;28;20250;-76
2022/07/19 04:13:14;;;;;;;6.93;3.45;;;;;;;28.41;54.73;100864.47;5049894;28;20195;-77
2022/07/19 04:15:40;;;;;;;8.13;3.38;;;;;;;28.61;53.36;100862.69;5050375;28;20194;-76
2022/07/19 04:18:07;;;;;;;6.07;3.35;;;;;;;28.74;52.56;100880.75;5050147;28;20199;-72
2022/07/19 04:20:34;;;;;;;9.70;3.85;;;;;;;28.98;51.72;100876.91;5050342;28;20195;-76
2022/07/19 04:23:01;;;;;;;8.50;3.92;;;;;;;28.56;50.69;100849.56;5050603;28;20199;-75
2022/07/19 04:25:28;;;;;;;12.60;4.00;;;;;;;28.82;51.24;100875.06;5015627;28;20209;-75
2022/07/19 04:27:55;;;;;;;9.40;3.25;;;;;;;29.11;49.98;100876.31;5049746;28;20207;-75
2022/07/19 04:30:23;;;;;;;5.78;3.63;;;;;;;29.35;49.68;100880.47;5049862;28;20239;-77
2022/07/19 04:32:50;;;;;;;5.35;3.65;;;;;;;29.56;49.07;100870.50;5050321;28;20212;-77
2022/07/19 04:35:17;;;;;;;6.60;3.85;;;;;;;29.61;48.39;100890.72;5050480;28;20199;-75
2022/07/19 04:37:44;;;;;;;8.43;3.38;;;;;;;29.92;47.37;100890.94;5064064;28;20202;-75
2022/07/19 04:40:11;;;;;;;6.13;3.70;;;;;;;30.15;47.44;100892.38;5021605;28;20213;-75
2022/07/19 04:42:38;;;;;;;12.65;4.40;;;;;;;30.34;47.02;100895.81;5049984;28;20194;-75
2022/07/19 04:45:06;;;;;;;7.85;3.80;;;;;;;30.21;46.69;100892.06;5049147;28;20195;-76
2022/07/19 04:47:35;;;;;;;10.82;3.75;;;;;;;30.24;45.78;100880.31;5050283;28;20206;-75
2022/07/19 04:50:01;;;;;;;8.70;4.13;;;;;;;30.35;46.68;100894.00;5049759;28;20195;-75
2022/07/19 04:52:28;;;;;;;8.80;3.53;;;;;;;30.47;45.50;100898.69;5049746;28;20210;-76
2022/07/19 04:54:55;;;;;;;7.53;4.22;;;;;;;30.55;44.58;100891.13;5052745;28;20227;-76
2022/07/19 04:57:22;;;;;;;4.40;3.92;;;;;;;30.86;44.07;100896.50;5053573;28;20210;-77
2022/07/19 04:59:49;;;;;;;5.25;3.70;;;;;;;30.77;43.15;100830.06;5034177;28;20287;-74
2022/07/19 05:02:15;;;;;;;7.32;4.05;;;;;;;30.65;43.76;100870.06;5020528;28;20203;-76
2022/07/19 05:04:44;;;;;;;12.43;3.67;;;;;;;30.37;43.96;100905.47;5045516;28;20202;-75
2022/07/19 05:07:10;;;;;;;7.13;3.30;;;;;;;30.39;43.50;100858.09;5015383;28;20199;-76
2022/07/19 05:09:37;;;;;;;5.07;3.60;;;;;;;31.12;42.95;100900.44;5053549;28;20202;-76
2022/07/19 05:12:07;;;;;;;15.00;3.33;;;;;;;31.09;43.06;100897.06;5017559;28;20257;-75
2022/07/19 05:14:34;;;;;;;18.80;3.88;;;;;;;31.05;43.08;100895.50;5051299;28;20215;-73
2022/07/19 05:17:01;;;;;;;8.30;3.35;;;;;;;31.28;43.14;100895.06;4998627;28;20222;-78
2022/07/19 05:19:28;;;;;;;10.32;3.00;;;;;;;31.41;41.70;100888.91;5046491;28;20683;-77
2022/07/19 05:21:56;;;;;;;3.15;2.67;;;;;;;31.83;41.57;100898.94;5055194;28;20203;-76
2022/07/19 05:24:23;;;;;;;10.25;6.32;;;;;;;32.10;40.90;100899.13;5052592;28;20203;-76
2022/07/19 05:26:50;;;;;;;8.43;2.80;;;;;;;31.41;40.35;100882.66;5052564;28;20207;-75
2022/07/19 05:29:16;;;;;;;8.02;3.20;;;;;;;31.83;40.24;100890.88;5052588;28;20214;-76
2022/07/19 05:31:43;;;;;;;6.97;3.80;;;;;;;32.14;40.38;100897.94;5050016;28;20235;-75
2022/07/19 05:34:10;;;;;;;10.18;3.00;;;;;;;31.48;41.39;100895.63;5050193;28;20211;-75
2022/07/19 05:36:37;;;;;;;9.80;3.65;;;;;;;31.68;40.96;100897.16;5034375;28;20203;-75
2022/07/19 05:39:05;;;;;;;8.57;3.70;;;;;;;31.56;40.34;100892.53;5052829;28;20702;-75
2022/07/19 05:41:32;;;;;;;9.10;3.00;;;;;;;31.27;40.74;100882.63;5051155;28;20209;-72
2022/07/19 05:43:59;;;;;;;4.50;2.45;;;;;;;30.60;41.66;100902.47;5051118;28;20221;-74
2022/07/19 05:46:26;;;;;;;2.70;2.50;;;;;;;30.04;42.06;100900.09;5051035;28;20199;-75
2022/07/19 05:48:53;;;;;;;7.38;2.20;;;;;;;30.19;42.77;100906.44;5052950;28;20195;-76
2022/07/19 05:51:20;;;;;;;7.43;2.45;;;;;;;30.27;41.97;100901.56;5052631;28;20218;-76
2022/07/19 05:53:46;;;;;;;6.13;2.90;;;;;;;29.33;42.81;100906.41;5052699;28;20235;-78
2022/07/19 05:56:16;;;;;;;4.95;2.28;;;;;;;28.14;43.97;100907.53;5034514;28;20675;-78
2022/07/19 05:58:43;;;;;;;3.53;2.35;;;;;;;27.68;45.65;100904.16;5035992;28;20196;-80
2022/07/19 06:01:18;;;;;;;3.58;2.70;;;;;;;27.34;46.56;100903.78;5035203;28;20217;-77
2022/07/19 06:03:46;;;;;;;3.20;2.88;;;;;;;27.20;47.55;100880.38;5034957;28;20200;-79
2022/07/19 06:06:13;;;;;;;6.05;2.70;;;;;;;27.28;48.37;100890.72;5040303;28;20222;-79
2022/07/19 06:08:40;;;;;;;5.93;3.33;;;;;;;27.52;46.66;100885.28;5037378;28;20213;-78
2022/07/19 06:11:07;;;;;;;2.80;2.30;;;;;;;27.67;46.47;100904.22;5006494;28;20231;-79
2022/07/19 06:13:35;;;;;;;6.28;3.65;;;;;;;28.13;45.19;100900.47;5014214;28;20771;-80
2022/07/19 06:16:02;;;;;;;4.93;2.83;;;;;;;28.35;44.54;100909.25;5024229;28;20195;-78
2022/07/19 06:18:34;;;;;;;4.65;2.50;;;;;;;27.76;46.83;100894.03;5054492;28;20210;-79
2022/07/19 06:21:01;;;;;;;4.60;2.80;;;;;;;28.11;46.17;100902.34;5035473;28;20211;-79
2022/07/19 06:23:28;;;;;;;10.25;2.70;;;;;;;27.85;45.02;100890.97;5054506;28;20203;-77
2022/07/19 06:25:54;;;;;;;9.23;2.38;;;;;;;27.13;47.57;100889.56;5048120;28;20200;-78
2022/07/19 06:28:21;;;;;;;2.70;2.50;;;;;;;27.17;46.28;100898.28;5004925;28;20199;-78
2022/07/19 06:30:49;;;;;;;8.85;2.90;;;;;;;27.39;46.73;100896.47;5051790;28;20579;-77
2022/07/19 06:33:16;;;;;;;3.13;2.92;;;;;;;26.74;47.87;100891.97;5032902;28;20191;-75
2022/07/19 06:35:43;;;;;;;10.27;2.53;;;;;;;26.42;49.08;100895.84;5051880;28;20199;-76
2022/07/19 06:38:10;;;;;;;7.85;2.50;;;;;;;26.40;49.26;100907.44;5051776;28;20199;-76
2022/07/19 06:40:37;;;;;;;4.38;2.28;;;;;;;25.97;50.58;100906.28;5052094;28;20203;-76
2022/07/19 06:43:04;;;;;;;6.82;2.45;;;;;;;25.55;48.96;100897.13;5052519;28;20200;-75
2022/07/19 06:45:30;;;;;;;8.40;2.47;;;;;;;25.61;48.96;100907.59;5035426;28;20198;-78
2022/07/19 06:47:59;;;;;;;3.95;2.10;;;;;;;25.33;49.52;100888.13;5061006;28;20203;-77
2022/07/19 06:50:26;;;;;;;3.50;2.58;;;;;;;25.18;50.37;100900.13;5071343;28;20206;-78
2022/07/19 06:52:53;;;;;;;7.57;2.22;;;;;;;25.38;49.59;100900.34;5071913;28;20238;-78
2022/07/19 06:55:20;;;;;;;7.13;2.50;;;;;;;25.60;53.58;100903.19;5071622;28;20230;-76
2022/07/19 06:57:47;;;;;;;2.53;2.33;;;;;;;25.19;51.64;100875.28;5071599;28;20195;-78
2022/07/19 07:00:15;;;;;;;2.88;2.35;;;;;;;25.58;52.02;100899.69;5067731;28;20200;-78
2022/07/19 07:02:42;;;;;;;2.53;2.33;;;;;;;25.71;48.92;100905.47;5051570;28;20211;-78
2022/07/19 07:05:12;;;;;;;3.63;2.20;;;;;;;25.75;49.97;100912.44;5054021;28;20631;-78
2022/07/19 07:07:39;;;;;;;2.58;2.30;;;;;;;25.56;48.84;100873.19;5051997;28;20680;-78
2022/07/19 07:10:07;;;;;;;2.20;2.10;;;;;;;25.70;48.79;100904.59;5051616;28;20199;-77
2022/07/19 07:12:34;;;;;;;3.50;2.20;;;;;;;25.84;49.52;100909.44;5051338;28;20306;-78
2022/07/19 07:15:01;;;;;;;3.53;2.00;;;;;;;25.75;48.92;100868.13;5051445;28;20210;-78
2022/07/19 07:17:28;;;;;;;3.22;2.20;;;;;;;25.96;47.47;100901.06;5050676;28;20214;-78
2022/07/19 07:19:56;;;;;;;3.65;2.10;;;;;;;26.11;48.33;100913.81;5057515;28;20191;-79
2022/07/19 07:22:24;;;;;;;2.90;2.13;;;;;;;26.04;46.85;100897.19;5071462;28;20211;-77
2022/07/19 07:24:51;;;;;;;3.50;2.15;;;;;;;26.10;43.90;100907.63;5061553;28;20205;-78
2022/07/19 07:27:18;;;;;;;1.65;1.55;;;;;;;25.92;41.16;100912.72;5061836;28;20733;-77
2022/07/19 07:29:45;;;;;;;1.67;1.58;;;;;;;26.10;42.28;100915.59;5061537;28;20567;-78
2022/07/19 07:32:12;;;;;;;4.97;1.58;;;;;;;26.05;40.64;100917.53;5050647;28;20230;-79
2022/07/19 07:34:39;;;;;;;3.72;1.80;;;;;;;26.15;40.47;100888.81;5050447;28;20213;-77
2022/07/19 07:37:06;;;;;;;5.40;2.00;;;;;;;26.34;40.96;100915.66;5050275;28;20349;-78
2022/07/19 07:39:35;;;;;;;2.85;1.92;;;;;;;26.00;43.39;100911.53;5050194;28;20206;-78
2022/07/19 07:42:03;;;;;;;2.55;1.77;;;;;;;26.14;44.17;100897.75;5015064;28;20191;-78
2022/07/19 07:44:30;;;;;;;7.55;1.85;;;;;;;26.44;45.13;100917.03;5050446;28;20199;-79
2022/07/19 07:46:57;;;;;;;9.38;2.00;;;;;;;26.47;44.63;100906.31;5050618;28;20207;-78
2022/07/19 07:49:24;;;;;;;2.10;1.90;;;;;;;26.43;45.30;100899.38;5050679;28;20202;-78
2022/07/19 07:51:51;;;;;;;2.45;2.00;;;;;;;26.63;43.77;100918.97;5050226;28;20219;-78
2022/07/19 07:54:18;;;;;;;2.60;2.00;;;;;;;26.57;44.82;100919.22;5050334;28;20235;-78
2022/07/19 07:56:46;;;;;;;4.95;2.00;;;;;;;26.56;44.91;100898.84;5015316;28;20200;-78
2022/07/19 07:59:13;;;;;;;4.70;2.15;;;;;;;26.71;44.35;100918.69;5046338;28;20207;-78
2022/07/19 08:01:39;;;;;;;1.75;1.65;;;;;;;26.88;44.55;100910.94;5050416;28;20695;-78
2022/07/19 08:04:06;;;;;;;1.73;1.63;;;;;;;26.86;44.27;100907.47;5050165;28;20195;-77
2022/07/19 08:06:33;;;;;;;4.63;2.13;;;;;;;26.66;42.09;100899.34;5050313;28;20619;-79
2022/07/19 08:09:00;;;;;;;5.70;2.20;;;;;;;26.90;41.68;100909.09;5050088;28;20207;-78
2022/07/19 08:11:27;;;;;;;2.45;2.00;;;;;;;26.77;41.82;100893.63;5049947;28;20223;-78
2022/07/19 08:13:55;;;;;;;4.88;2.40;;;;;;;26.85;41.33;100912.88;5050116;28;20207;-78
2022/07/19 08:16:22;;;;;;;2.97;2.35;;;;;;;26.95;42.63;100909.78;5050035;28;20793;-79
2022/07/19 08:18:49;;;;;;;4.15;3.10;;;;;;;26.80;41.99;100898.81;5050043;28;20202;-77
2022/07/19 08:21:16;;;;;;;7.60;3.15;;;;;;;27.15;42.25;100910.81;5050194;28;20206;-79
2022/07/19 08:23:43;;;;;;;4.32;2.70;;;;;;;27.36;40.28;100901.94;5014966;28;20196;-78
2022/07/19 08:26:10;;;;;;;5.00;3.20;;;;;;;27.63;40.14;100913.28;5050306;28;20210;-78
2022/07/19 08:28:37;;;;;;;3.33;3.03;;;;;;;27.76;40.35;100909.16;5050767;28;20206;-78
2022/07/19 08:31:05;;;;;;;23.10;3.67;;;;;;;27.47;40.33;100907.69;5018576;28;20199;-78
2022/07/19 08:33:32;;;;;;;6.65;3.58;;;;;;;27.57;38.73;100890.44;5053636;28;20227;-78
2022/07/19 08:35:59;;;;;;;5.95;3.42;;;;;;;27.57;38.73;100904.59;5053922;28;20206;-78
2022/07/19 08:38:26;;;;;;;7.85;3.42;;;;;;;27.38;38.17;100894.75;5053685;28;20199;-78
2022/07/19 08:40:55;;;;;;;4.72;3.70;;;;;;;27.54;38.49;100901.19;5018589;28;20198;-77
2022/07/19 08:43:22;;;;;;;7.63;3.72;;;;;;;27.48;37.57;100888.13;5053579;28;20209;-77
2022/07/19 08:45:50;;;;;;;3.60;3.30;;;;;;;27.56;38.22;100896.69;5053780;28;20196;-78
2022/07/19 08:48:19;;;;;;;5.93;3.58;;;;;;;27.48;37.64;100882.81;5018390;28;20202;-78
2022/07/19 08:50:47;;;;;;;6.93;3.53;;;;;;;27.68;37.87;100896.16;5053481;28;20259;-78
2022/07/19 08:53:15;;;;;;;5.38;2.88;;;;;;;27.71;36.28;100897.84;5018221;28;20231;-77
2022/07/19 08:55:42;;;;;;;5.30;3.00;;;;;;;27.73;36.62;100894.16;5053517;28;20227;-77
2022/07/19 08:58:07;;;;;;;3.80;2.53;;;;;;;27.71;34.78;100895.16;5053176;28;20214;-77
2022/07/19 09:00:35;;;;;;;2.65;1.92;;;;;;;27.28;34.64;100829.47;5018063;28;20195;-78
2022/07/19 09:03:04;;;;;;;6.28;2.42;;;;;;;27.93;34.80;100888.81;5053102;28;20195;-77
2022/07/19 09:05:33;;;;;;;2.60;2.40;;;;;;;27.93;34.83;100891.50;5052986;28;20207;-77
2022/07/19 09:08:05;;;;;;;2.13;1.90;;;;;;;27.91;35.39;100888.03;5053098;28;20637;-78
2022/07/19 09:10:34;;;;;;;3.28;2.30;;;;;;;28.23;35.16;100893.78;5019522;28;20671;-77
2022/07/19 09:13:07;;;;;;;2.20;2.08;;;;;;;27.95;35.00;100883.44;5052751;28;20227;-77
2022/07/19 09:15:43;;;;;;;3.05;2.45;;;;;;;28.21;34.79;100890.31;4986655;28;20210;-77
2022/07/19 09:18:11;;;;;;;3.45;2.20;;;;;;;27.74;34.15;100853.25;5052802;28;20195;-78
2022/07/19 09:20:40;;;;;;;3.40;1.80;;;;;;;27.94;34.43;100887.03;5053493;28;20195;-78
2022/07/19 09:23:08;;;;;;;8.35;2.28;;;;;;;27.97;35.52;100881.56;5047368;28;20222;-77
2022/07/19 09:25:37;;;;;;;2.33;2.13;;;;;;;28.20;35.49;100877.91;5045083;28;20203;-77
2022/07/19 09:28:04;;;;;;;5.00;2.00;;;;;;;28.35;34.12;100853.22;5038454;28;20615;-78
2022/07/19 09:30:39;;;;;;;4.10;1.55;;;;;;;28.35;33.67;100867.44;5052515;28;20226;-77
2022/07/19 09:33:08;;;;;;;5.90;2.30;;;;;;;28.26;34.63;100872.28;5052755;28;20231;-76
2022/07/19 09:35:42;;;;;;;2.10;1.90;;;;;;;28.56;34.45;100860.22;5052619;28;20215;-77
2022/07/19 09:38:25;;;;;;;10.23;2.30;;;;;;;28.38;34.83;100864.63;5039374;28;20203;-78
2022/07/19 09:40:54;;;;;;;2.20;2.00;;;;;;;28.45;34.45;100862.53;5037706;28;20212;-76
2022/07/19 09:43:22;;;;;;;2.55;2.30;;;;;;;28.72;34.91;100866.59;5017090;28;20199;-76
2022/07/19 09:45:50;;;;;;;2.28;1.90;;;;;;;28.88;34.57;100862.28;5052451;28;20203;-76
2022/07/19 09:48:17;;;;;;;6.45;1.98;;;;;;;28.67;33.19;100863.28;5052446;28;20329;-77
2022/07/19 09:50:48;;;;;;;2.75;1.85;;;;;;;28.60;33.71;100847.59;5054946;28;20278;-77
2022/07/19 09:53:16;;;;;;;4.85;2.25;;;;;;;28.49;33.39;100859.66;5052700;28;20284;-76
2022/07/19 09:55:43;;;;;;;2.88;2.08;;;;;;;28.55;33.33;100846.00;5053448;28;20230;-83
2022/07/19 09:58:11;;;;;;;2.00;1.70;;;;;;;28.44;33.12;100860.78;5052876;28;20203;-76
2022/07/19 10:00:38;;;;;;;3.70;2.20;;;;;;;28.59;33.93;100846.72;5052887;28;20206;-77
2022/07/19 10:03:08;;;;;;;1.80;1.70;;;;;;;28.85;33.67;100856.22;5052620;28;20261;-77
2022/07/19 10:05:35;;;;;;;1.52;1.42;;;;;;;28.72;32.66;100849.69;5052286;28;20198;-77
2022/07/19 10:08:06;;;;;;;3.03;1.88;;;;;;;29.01;32.77;100844.69;5052560;28;20282;-78
2022/07/19 10:10:32;;;;;;;1.90;1.80;;;;;;;28.93;32.91;100843.38;5052457;28;20202;-77
2022/07/19 10:12:59;;;;;;;3.47;1.83;;;;;;;28.69;33.15;100848.06;5052479;28;20227;-76
2022/07/19 10:15:27;;;;;;;2.60;2.28;;;;;;;28.53;33.27;100788.31;5052347;28;20195;-76
2022/07/19 10:18:12;;;;;;;3.33;1.70;;;;;;;28.99;33.46;100835.03;5052373;28;20199;-77
2022/07/19 10:20:40;;;;;;;2.80;1.80;;;;;;;28.88;32.67;100824.00;5052179;28;20207;-75
2022/07/19 10:23:08;;;;;;;1.70;1.60;;;;;;;29.01;32.76;100836.69;5052256;28;20646;-77
2022/07/19 10:25:44;;;;;;;3.55;1.80;;;;;;;28.89;33.01;100836.44;5052038;28;20652;-77
2022/07/19 10:28:30;;;;;;;2.97;1.80;;;;;;;28.87;32.41;100836.50;5052112;28;20206;-77
2022/07/19 10:30:57;;;;;;;4.88;2.25;;;;;;;28.91;33.31;100831.88;5051430;28;20198;-77
2022/07/19 10:33:31;;;;;;;2.10;1.90;;;;;;;28.92;33.85;100815.78;5052133;28;20346;-77
2022/07/19 10:35:58;;;;;;;1.70;1.60;;;;;;;29.05;33.05;100800.00;5051948;28;20600;-78
2022/07/19 10:38:26;;;;;;;2.20;2.00;;;;;;;29.01;33.21;100771.72;5052035;28;20198;-78
2022/07/19 10:40:58;;;;;;;2.10;1.77;;;;;;;29.14;32.20;100815.59;5032952;28;20214;-77
2022/07/19 10:43:27;;;;;;;2.63;2.13;;;;;;;29.11;32.07;100812.22;5051920;28;20201;-76
2022/07/19 10:46:11;;;;;;;7.40;2.28;;;;;;;29.10;32.78;100807.81;5051835;28;20285;-78
2022/07/19 10:48:39;;;;;;;4.88;1.90;;;;;;;29.03;32.55;100793.88;5051696;28;20209;-76
2022/07/19 10:51:07;;;;;;;4.55;2.05;;;;;;;29.19;33.03;100785.94;5050887;28;20202;-77
2022/07/19 10:54:05;;;;;;;2.83;2.00;;;;;;;29.46;32.28;100792.63;5051423;28;20226;-78
2022/07/19 10:56:57;;;;;;;8.90;3.28;;;;;;;29.55;33.43;100781.44;5052046;28;20234;-76
2022/07/19 10:59:33;;;;;;;6.50;2.13;;;;;;;29.45;31.91;100793.56;5051507;28;20206;-77
2022/07/19 11:02:01;;;;;;;5.30;1.92;;;;;;;29.33;31.96;100799.50;5017001;28;20245;-77
2022/07/19 11:04:31;;;;;;;6.68;2.38;;;;;;;29.37;32.12;100777.03;5051570;28;20202;-78
2022/07/19 11:07:18;;;;;;;3.05;2.45;;;;;;;29.88;32.23;100793.06;5051536;28;20199;-77
2022/07/19 11:09:49;;;;;;;8.95;2.63;;;;;;;29.93;31.23;100779.47;5051589;28;20207;-78
2022/07/19 11:12:35;;;;;;;3.65;2.20;;;;;;;29.82;31.75;100787.16;5051888;28;20252;-78
2022/07/19 11:15:06;;;;;;;8.23;2.47;;;;;;;29.55;31.34;100786.78;5052284;28;20590;-77
2022/07/19 11:17:33;;;;;;;5.75;2.30;;;;;;;29.49;32.33;100779.09;5017105;28;20201;-78
2022/07/19 11:20:08;;;;;;;3.15;1.80;;;;;;;29.75;32.08;100773.22;5051645;28;20207;-77
2022/07/19 11:22:37;;;;;;;2.08;1.98;;;;;;;29.69;31.54;100773.56;5032291;28;20194;-78
2022/07/19 11:25:06;;;;;;;2.60;2.13;;;;;;;29.81;31.28;100766.69;5051044;28;20289;-78
2022/07/19 11:27:34;;;;;;;5.60;2.00;;;;;;;29.70;30.96;100769.06;5050931;28;20210;-78